CMA CGM Thalassa — 5BNE2 — position and weather

sailwx.info

Track history (hours):
 
Tides and Currents Weather Stations Pressure Air Temp Water Temp Dewpoint Dewpoint Depression Visibility Wind Speed Wind Dir Waves Ship Positions

CMA CGM Thalassa

Last reported at 2014-Aug-17 18:33 UTC. Time now 2014-Aug-27 15:09 UTC.
Position N 31°24' E 032°24'.
Warning: this ship's position is 9 days out of date.

Length 347 m; draft 15.3 m.

Type: Ship (hazmat cat A). MMSI: 212151000.

Date/timePositionNaut miles runAvg speedWind from/ knotsBaromVisibWave heightAir tempDewpointWater temp
2014-Aug-17 18:33N 31°24' E 032°24'5 4.7
2014-Aug-17 17:31N 31°28' E 032°21'1 1.4
2014-Aug-17 16:33N 31°29' E 032°21'1211.7
2014-Aug-17 15:33N 31°39' E 032°29'2019.5
2014-Aug-17 14:33N 31°53' E 032°45'2121.0
2014-Aug-17 13:33N 32°07' E 033°03'2221.1
2014-Aug-17 12:30N 32°23' E 033°22'2020.7
2014-Aug-17 11:33N 32°36' E 033°40'8320.6
2014-Aug-17 07:30N 33°35' E 034°50'2120.7
2014-Aug-17 06:29N 33°50' E 035°07'21 4.2
2014-Aug-17 01:27N 33°55' E 035°32'0 0.0
2014-Aug-17 00:30N 33°55' E 035°32'0 0.0
2014-Aug-16 04:06N 33°55' E 035°32'0 0.0
2014-Aug-15 15:12N 33°55' E 035°32'0 0.0
2014-Aug-15 07:18N 33°55' E 035°32'1 0.9
2014-Aug-15 06:33N 33°55' E 035°32'7 5.7
2014-Aug-15 05:23N 33°54' E 035°24'1518.4
2014-Aug-15 04:33N 33°55' E 035°06'2121.0
2014-Aug-15 03:33N 33°57' E 034°41'2120.6
2014-Aug-15 02:33N 33°58' E 034°16'2120.8
2014-Aug-15 01:33N 34°00' E 033°51'2120.8
2014-Aug-15 00:34N 34°02' E 033°26'2121.0
2014-Aug-14 23:33N 34°04' E 033°01'2121.1
2014-Aug-14 22:33N 34°05' E 032°35'2121.0
2014-Aug-14 21:34N 34°07' E 032°10'2121.0
2014-Aug-14 20:34N 34°09' E 031°45'2120.8
2014-Aug-14 19:33N 34°11' E 031°20'2120.9
2014-Aug-14 18:33N 34°13' E 030°55'2321.0
2014-Aug-14 17:28N 34°14' E 030°27'2521.0
2014-Aug-14 16:16N 34°17' E 029°57'5721.1
2014-Aug-14 13:33N 34°22' E 028°48'2921.2
2014-Aug-14 12:12N 34°24' E 028°13'34520.6
2014-Aug-13 19:27N 35°12' E 021°17'31220.9
2014-Aug-13 04:33N 36°19' E 015°02'10320.7
2014-Aug-12 23:32N 36°47' E 012°58'2020.3
2014-Aug-12 22:33N 36°53' E 012°34'2220.5
2014-Aug-12 21:28N 37°00' E 012°08'2020.9
2014-Aug-12 20:31N 37°09' E 011°45'2020.8
2014-Aug-12 19:33N 37°18' E 011°23'2120.7
2014-Aug-12 18:33N 37°26' E 010°59'2019.8
2014-Aug-12 17:33N 37°29' E 010°35'2120.7
2014-Aug-12 16:33N 37°33' E 010°09'2221.2
2014-Aug-12 15:32N 37°30' E 009°42'2120.9
2014-Aug-12 14:33N 37°25' E 009°17'2120.8
2014-Aug-12 13:32N 37°19' E 008°51'2020.7
2014-Aug-12 12:33N 37°16' E 008°26'2120.9
2014-Aug-12 11:33N 37°18' E 007°59'4521.6
2014-Aug-12 09:28N 37°20' E 007°03'14720.9
2014-Aug-12 02:27N 37°08' E 003°59'1921.0
2014-Aug-12 01:32N 37°06' E 003°35'2020.9
2014-Aug-12 00:33N 37°03' E 003°10'2121.1
2014-Aug-11 23:33N 36°59' E 002°44'2020.6
2014-Aug-11 22:33N 36°56' E 002°19'2120.5
2014-Aug-11 21:33N 36°53' E 001°53'2121.3
2014-Aug-11 20:33N 36°50' E 001°27'2121.0
2014-Aug-11 19:33N 36°46' E 001°01'2120.9
2014-Aug-11 18:33N 36°43' E 000°35'2121.1
2014-Aug-11 17:33N 36°39' E 000°09'2921.2
2014-Aug-11 16:11N 36°35' W 000°26'1320.2
2014-Aug-11 15:33N 36°33' W 000°42'2120.7
2014-Aug-11 14:33N 36°30' W 001°08'2120.6
2014-Aug-11 13:33N 36°27' W 001°33'18221.7
2014-Aug-11 05:08N 35°59' W 005°16'18021.0
2014-Aug-10 20:33N 36°29' W 008°57'2520.8
2014-Aug-10 19:21N 36°40' W 009°25'86817.8
2014-Aug-08 18:33N 49°43' W 000°53'1818.4
2014-Aug-08 17:33N 49°37' W 000°26'1716.6
2014-Aug-08 16:33N 49°31' W 000°02'9 8.7
2014-Aug-08 15:33N 49°27' E 000°10'0 0.1
2014-Aug-08 14:32N 49°27' E 000°10'0 0.0
2014-Aug-08 13:32N 49°27' E 000°10'0 0.0
2014-Aug-08 12:28N 49°27' E 000°10'0 0.0
2014-Aug-08 11:31N 49°27' E 000°10'0 0.0
2014-Aug-08 10:31N 49°27' E 000°10'0 0.0
2014-Aug-08 09:33N 49°27' E 000°10'0 0.0
2014-Aug-08 08:33N 49°27' E 000°10'0 0.0
2014-Aug-08 07:32N 49°27' E 000°10'0 0.0
2014-Aug-08 06:32N 49°27' E 000°10'0 0.0
2014-Aug-08 05:31N 49°27' E 000°10'0 0.0
2014-Aug-08 04:31N 49°27' E 000°10'0 0.0
2014-Aug-08 03:31N 49°27' E 000°10'0 0.0
2014-Aug-08 02:33N 49°27' E 000°10'0 0.0
2014-Aug-08 01:33N 49°27' E 000°10'0 0.0
2014-Aug-08 00:32N 49°27' E 000°10'0 0.0
2014-Aug-07 23:32N 49°27' E 000°10'0 0.0
2014-Aug-07 22:31N 49°27' E 000°10'0 0.0
2014-Aug-07 21:31N 49°27' E 000°10'0 0.0
2014-Aug-07 20:28N 49°27' E 000°10'0 0.0
2014-Aug-07 19:33N 49°27' E 000°10'0 0.3
2014-Aug-07 18:33N 49°27' E 000°10'  
Track history (hours):
 
Tides and Currents Weather Stations Pressure Air Temp Water Temp Dewpoint Dewpoint Depression Visibility Wind Speed Wind Dir Waves Ship Positions

CMA CGM Thalassa

Last reported at 2014-Aug-17 18:33 UTC. Time now 2014-Aug-27 15:09 UTC.
Position N 31°24' E 032°24'.
Warning: this ship's position is 9 days out of date.

Length 347 m; draft 15.3 m.

Type: Ship (hazmat cat A). MMSI: 212151000.

Date/timePositionNaut miles runAvg speedWind from/ knotsBaromVisibWave heightAir tempDewpointWater temp
2014-Aug-17 18:33N 31°24' E 032°24'5 4.7
2014-Aug-17 17:31N 31°28' E 032°21'1 1.4
2014-Aug-17 16:33N 31°29' E 032°21'1211.7
2014-Aug-17 15:33N 31°39' E 032°29'2019.5
2014-Aug-17 14:33N 31°53' E 032°45'2121.0
2014-Aug-17 13:33N 32°07' E 033°03'2221.1
2014-Aug-17 12:30N 32°23' E 033°22'2020.7
2014-Aug-17 11:33N 32°36' E 033°40'8320.6
2014-Aug-17 07:30N 33°35' E 034°50'2120.7
2014-Aug-17 06:29N 33°50' E 035°07'21 4.2
2014-Aug-17 01:27N 33°55' E 035°32'0 0.0
2014-Aug-17 00:30N 33°55' E 035°32'0 0.0
2014-Aug-16 04:06N 33°55' E 035°32'0 0.0
2014-Aug-15 15:12N 33°55' E 035°32'0 0.0
2014-Aug-15 07:18N 33°55' E 035°32'1 0.9
2014-Aug-15 06:33N 33°55' E 035°32'7 5.7
2014-Aug-15 05:23N 33°54' E 035°24'1518.4
2014-Aug-15 04:33N 33°55' E 035°06'2121.0
2014-Aug-15 03:33N 33°57' E 034°41'2120.6
2014-Aug-15 02:33N 33°58' E 034°16'2120.8
2014-Aug-15 01:33N 34°00' E 033°51'2120.8
2014-Aug-15 00:34N 34°02' E 033°26'2121.0
2014-Aug-14 23:33N 34°04' E 033°01'2121.1
2014-Aug-14 22:33N 34°05' E 032°35'2121.0
2014-Aug-14 21:34N 34°07' E 032°10'2121.0
2014-Aug-14 20:34N 34°09' E 031°45'2120.8
2014-Aug-14 19:33N 34°11' E 031°20'2120.9
2014-Aug-14 18:33N 34°13' E 030°55'2321.0
2014-Aug-14 17:28N 34°14' E 030°27'2521.0
2014-Aug-14 16:16N 34°17' E 029°57'5721.1
2014-Aug-14 13:33N 34°22' E 028°48'2921.2
2014-Aug-14 12:12N 34°24' E 028°13'34520.6
2014-Aug-13 19:27N 35°12' E 021°17'31220.9
2014-Aug-13 04:33N 36°19' E 015°02'10320.7
2014-Aug-12 23:32N 36°47' E 012°58'2020.3
2014-Aug-12 22:33N 36°53' E 012°34'2220.5
2014-Aug-12 21:28N 37°00' E 012°08'2020.9
2014-Aug-12 20:31N 37°09' E 011°45'2020.8
2014-Aug-12 19:33N 37°18' E 011°23'2120.7
2014-Aug-12 18:33N 37°26' E 010°59'2019.8
2014-Aug-12 17:33N 37°29' E 010°35'2120.7
2014-Aug-12 16:33N 37°33' E 010°09'2221.2
2014-Aug-12 15:32N 37°30' E 009°42'2120.9
2014-Aug-12 14:33N 37°25' E 009°17'2120.8
2014-Aug-12 13:32N 37°19' E 008°51'2020.7
2014-Aug-12 12:33N 37°16' E 008°26'2120.9
2014-Aug-12 11:33N 37°18' E 007°59'4521.6
2014-Aug-12 09:28N 37°20' E 007°03'14720.9
2014-Aug-12 02:27N 37°08' E 003°59'1921.0
2014-Aug-12 01:32N 37°06' E 003°35'2020.9
2014-Aug-12 00:33N 37°03' E 003°10'2121.1
2014-Aug-11 23:33N 36°59' E 002°44'2020.6
2014-Aug-11 22:33N 36°56' E 002°19'2120.5
2014-Aug-11 21:33N 36°53' E 001°53'2121.3
2014-Aug-11 20:33N 36°50' E 001°27'2121.0
2014-Aug-11 19:33N 36°46' E 001°01'2120.9
2014-Aug-11 18:33N 36°43' E 000°35'2121.1
2014-Aug-11 17:33N 36°39' E 000°09'2921.2
2014-Aug-11 16:11N 36°35' W 000°26'1320.2
2014-Aug-11 15:33N 36°33' W 000°42'2120.7
2014-Aug-11 14:33N 36°30' W 001°08'2120.6
2014-Aug-11 13:33N 36°27' W 001°33'18221.7
2014-Aug-11 05:08N 35°59' W 005°16'18021.0
2014-Aug-10 20:33N 36°29' W 008°57'2520.8
2014-Aug-10 19:21N 36°40' W 009°25'86817.8
2014-Aug-08 18:33N 49°43' W 000°53'1818.4
2014-Aug-08 17:33N 49°37' W 000°26'1716.6
2014-Aug-08 16:33N 49°31' W 000°02'9 8.7
2014-Aug-08 15:33N 49°27' E 000°10'0 0.1
2014-Aug-08 14:32N 49°27' E 000°10'0 0.0
2014-Aug-08 13:32N 49°27' E 000°10'0 0.0
2014-Aug-08 12:28N 49°27' E 000°10'0 0.0
2014-Aug-08 11:31N 49°27' E 000°10'0 0.0
2014-Aug-08 10:31N 49°27' E 000°10'0 0.0
2014-Aug-08 09:33N 49°27' E 000°10'0 0.0
2014-Aug-08 08:33N 49°27' E 000°10'0 0.0
2014-Aug-08 07:32N 49°27' E 000°10'0 0.0
2014-Aug-08 06:32N 49°27' E 000°10'0 0.0
2014-Aug-08 05:31N 49°27' E 000°10'0 0.0
2014-Aug-08 04:31N 49°27' E 000°10'0 0.0
2014-Aug-08 03:31N 49°27' E 000°10'0 0.0
2014-Aug-08 02:33N 49°27' E 000°10'0 0.0
2014-Aug-08 01:33N 49°27' E 000°10'0 0.0
2014-Aug-08 00:32N 49°27' E 000°10'0 0.0
2014-Aug-07 23:32N 49°27' E 000°10'0 0.0
2014-Aug-07 22:31N 49°27' E 000°10'0 0.0
2014-Aug-07 21:31N 49°27' E 000°10'0 0.0
2014-Aug-07 20:28N 49°27' E 000°10'0 0.0
2014-Aug-07 19:33N 49°27' E 000°10'0 0.3
2014-Aug-07 18:33N 49°27' E 000°10'  

Dump ship's entire track history